sensor_id;sensor_type;location;lat;lon;timestamp;temperature;humidity
12761;DHT22;6444;49.742;6.114;2023-11-19T00:02:17;12.80;99.90
12761;DHT22;6444;49.742;6.114;2023-11-19T00:04:44;12.40;99.90
12761;DHT22;6444;49.742;6.114;2023-11-19T00:07:11;12.30;99.90
12761;DHT22;6444;49.742;6.114;2023-11-19T00:09:38;12.20;99.90
12761;DHT22;6444;49.742;6.114;2023-11-19T00:12:06;11.90;99.90
12761;DHT22;6444;49.742;6.114;2023-11-19T00:14:35;12.00;99.90
12761;DHT22;6444;49.742;6.114;2023-11-19T00:16:59;12.10;99.90
12761;DHT22;6444;49.742;6.114;2023-11-19T00:19:25;12.50;99.90
12761;DHT22;6444;49.742;6.114;2023-11-19T00:21:52;12.40;99.90
12761;DHT22;6444;49.742;6.114;2023-11-19T00:24:19;12.40;99.90
12761;DHT22;6444;49.742;6.114;2023-11-19T00:26:45;13.00;99.90
12761;DHT22;6444;49.742;6.114;2023-11-19T00:29:12;12.90;99.90
12761;DHT22;6444;49.742;6.114;2023-11-19T00:31:39;12.30;99.90
12761;DHT22;6444;49.742;6.114;2023-11-19T00:34:05;12.70;99.90
12761;DHT22;6444;49.742;6.114;2023-11-19T00:36:32;13.00;99.90
12761;DHT22;6444;49.742;6.114;2023-11-19T00:38:58;12.90;99.90
12761;DHT22;6444;49.742;6.114;2023-11-19T00:41:25;13.00;99.90
12761;DHT22;6444;49.742;6.114;2023-11-19T00:43:52;12.70;99.90
12761;DHT22;6444;49.742;6.114;2023-11-19T00:46:18;12.30;99.90
12761;DHT22;6444;49.742;6.114;2023-11-19T00:48:45;12.50;99.90
12761;DHT22;6444;49.742;6.114;2023-11-19T00:51:12;12.80;99.90
12761;DHT22;6444;49.742;6.114;2023-11-19T00:53:38;12.80;99.90
12761;DHT22;6444;49.742;6.114;2023-11-19T00:56:06;12.40;99.90
12761;DHT22;6444;49.742;6.114;2023-11-19T00:58:33;12.60;99.90
12761;DHT22;6444;49.742;6.114;2023-11-19T01:01:00;12.60;99.90
12761;DHT22;6444;49.742;6.114;2023-11-19T01:03:26;12.40;99.90
12761;DHT22;6444;49.742;6.114;2023-11-19T01:05:53;11.90;99.90
12761;DHT22;6444;49.742;6.114;2023-11-19T01:08:20;12.00;99.90
12761;DHT22;6444;49.742;6.114;2023-11-19T01:10:46;12.40;99.90
12761;DHT22;6444;49.742;6.114;2023-11-19T01:13:13;12.40;99.90
12761;DHT22;6444;49.742;6.114;2023-11-19T01:15:40;12.80;99.90
12761;DHT22;6444;49.742;6.114;2023-11-19T01:18:06;12.40;99.90
12761;DHT22;6444;49.742;6.114;2023-11-19T01:20:33;12.40;99.90
12761;DHT22;6444;49.742;6.114;2023-11-19T01:22:59;12.30;99.90
12761;DHT22;6444;49.742;6.114;2023-11-19T01:25:26;12.40;99.90
12761;DHT22;6444;49.742;6.114;2023-11-19T01:27:53;12.90;99.90
12761;DHT22;6444;49.742;6.114;2023-11-19T01:30:19;13.00;99.90
12761;DHT22;6444;49.742;6.114;2023-11-19T01:32:46;12.90;99.90
12761;DHT22;6444;49.742;6.114;2023-11-19T01:35:13;12.80;99.90
12761;DHT22;6444;49.742;6.114;2023-11-19T01:37:40;12.80;99.90
12761;DHT22;6444;49.742;6.114;2023-11-19T01:40:07;12.70;99.90
12761;DHT22;6444;49.742;6.114;2023-11-19T01:42:39;12.60;99.90
12761;DHT22;6444;49.742;6.114;2023-11-19T01:45:06;12.20;99.90
12761;DHT22;6444;49.742;6.114;2023-11-19T01:47:33;12.20;99.90
12761;DHT22;6444;49.742;6.114;2023-11-19T01:49:59;12.20;99.90
12761;DHT22;6444;49.742;6.114;2023-11-19T01:52:26;12.10;99.90
12761;DHT22;6444;49.742;6.114;2023-11-19T01:54:53;12.10;99.90
12761;DHT22;6444;49.742;6.114;2023-11-19T01:57:20;12.00;99.90
12761;DHT22;6444;49.742;6.114;2023-11-19T01:59:46;11.90;99.90
12761;DHT22;6444;49.742;6.114;2023-11-19T02:02:12;12.00;99.90
12761;DHT22;6444;49.742;6.114;2023-11-19T02:04:39;12.20;99.90
12761;DHT22;6444;49.742;6.114;2023-11-19T02:07:06;12.20;99.90
12761;DHT22;6444;49.742;6.114;2023-11-19T02:09:33;12.50;99.90
12761;DHT22;6444;49.742;6.114;2023-11-19T02:12:00;12.40;99.90
12761;DHT22;6444;49.742;6.114;2023-11-19T02:14:26;12.30;99.90
12761;DHT22;6444;49.742;6.114;2023-11-19T02:16:53;12.40;99.90
12761;DHT22;6444;49.742;6.114;2023-11-19T02:19:20;12.50;99.90
12761;DHT22;6444;49.742;6.114;2023-11-19T02:21:47;12.40;99.90
12761;DHT22;6444;49.742;6.114;2023-11-19T02:24:14;12.40;99.90
12761;DHT22;6444;49.742;6.114;2023-11-19T02:27:00;12.90;99.90
12761;DHT22;6444;49.742;6.114;2023-11-19T02:29:10;12.70;99.90
12761;DHT22;6444;49.742;6.114;2023-11-19T02:31:36;12.50;99.90
12761;DHT22;6444;49.742;6.114;2023-11-19T02:34:03;12.40;99.90
12761;DHT22;6444;49.742;6.114;2023-11-19T02:36:30;12.30;99.90
12761;DHT22;6444;49.742;6.114;2023-11-19T02:38:56;12.30;99.90
12761;DHT22;6444;49.742;6.114;2023-11-19T02:41:23;12.50;99.90
12761;DHT22;6444;49.742;6.114;2023-11-19T02:43:49;12.50;99.90
12761;DHT22;6444;49.742;6.114;2023-11-19T02:46:16;12.70;99.90
12761;DHT22;6444;49.742;6.114;2023-11-19T02:48:43;12.90;99.90
12761;DHT22;6444;49.742;6.114;2023-11-19T02:51:10;12.80;99.90
12761;DHT22;6444;49.742;6.114;2023-11-19T02:53:37;12.80;99.90
12761;DHT22;6444;49.742;6.114;2023-11-19T02:56:03;12.80;99.90
12761;DHT22;6444;49.742;6.114;2023-11-19T02:58:37;12.80;99.90
12761;DHT22;6444;49.742;6.114;2023-11-19T03:01:03;12.80;99.90
12761;DHT22;6444;49.742;6.114;2023-11-19T03:03:30;12.90;99.90
12761;DHT22;6444;49.742;6.114;2023-11-19T03:05:59;13.20;99.90
12761;DHT22;6444;49.742;6.114;2023-11-19T03:08:26;13.30;99.90
12761;DHT22;6444;49.742;6.114;2023-11-19T03:10:53;13.20;99.90
12761;DHT22;6444;49.742;6.114;2023-11-19T03:13:20;13.10;99.90
12761;DHT22;6444;49.742;6.114;2023-11-19T03:15:46;12.90;99.90
12761;DHT22;6444;49.742;6.114;2023-11-19T03:18:13;12.90;99.90
12761;DHT22;6444;49.742;6.114;2023-11-19T03:20:40;13.00;99.90
12761;DHT22;6444;49.742;6.114;2023-11-19T03:23:07;13.00;99.90
12761;DHT22;6444;49.742;6.114;2023-11-19T03:25:34;13.00;99.90
12761;DHT22;6444;49.742;6.114;2023-11-19T03:28:00;13.60;99.90
12761;DHT22;6444;49.742;6.114;2023-11-19T03:30:27;13.70;99.90
12761;DHT22;6444;49.742;6.114;2023-11-19T03:32:54;13.40;99.90
12761;DHT22;6444;49.742;6.114;2023-11-19T03:35:21;13.20;99.90
12761;DHT22;6444;49.742;6.114;2023-11-19T03:37:47;13.20;99.90
12761;DHT22;6444;49.742;6.114;2023-11-19T03:40:14;13.40;99.90
12761;DHT22;6444;49.742;6.114;2023-11-19T03:42:41;13.30;99.90
12761;DHT22;6444;49.742;6.114;2023-11-19T03:45:07;13.40;99.90
12761;DHT22;6444;49.742;6.114;2023-11-19T03:47:37;13.60;99.90
12761;DHT22;6444;49.742;6.114;2023-11-19T03:50:03;13.60;99.90
12761;DHT22;6444;49.742;6.114;2023-11-19T03:52:30;13.60;99.90
12761;DHT22;6444;49.742;6.114;2023-11-19T03:54:57;13.60;99.90
12761;DHT22;6444;49.742;6.114;2023-11-19T03:57:23;14.00;99.90
12761;DHT22;6444;49.742;6.114;2023-11-19T03:59:50;14.10;99.90
12761;DHT22;6444;49.742;6.114;2023-11-19T04:02:16;13.90;99.90
12761;DHT22;6444;49.742;6.114;2023-11-19T04:04:44;14.10;99.90
12761;DHT22;6444;49.742;6.114;2023-11-19T04:07:10;14.00;99.90
12761;DHT22;6444;49.742;6.114;2023-11-19T04:09:37;13.40;99.90
12761;DHT22;6444;49.742;6.114;2023-11-19T04:12:04;13.30;99.90
12761;DHT22;6444;49.742;6.114;2023-11-19T04:14:30;13.20;99.90
12761;DHT22;6444;49.742;6.114;2023-11-19T04:16:57;13.30;99.90
12761;DHT22;6444;49.742;6.114;2023-11-19T04:19:24;13.40;99.90
12761;DHT22;6444;49.742;6.114;2023-11-19T04:21:50;13.60;99.90
12761;DHT22;6444;49.742;6.114;2023-11-19T04:24:17;13.60;99.90
12761;DHT22;6444;49.742;6.114;2023-11-19T04:26:45;13.20;99.90
12761;DHT22;6444;49.742;6.114;2023-11-19T04:29:11;13.20;99.90
12761;DHT22;6444;49.742;6.114;2023-11-19T04:31:38;13.30;99.90
12761;DHT22;6444;49.742;6.114;2023-11-19T04:34:05;13.40;99.90
12761;DHT22;6444;49.742;6.114;2023-11-19T04:36:31;13.50;99.90
12761;DHT22;6444;49.742;6.114;2023-11-19T04:38:57;13.40;99.90
12761;DHT22;6444;49.742;6.114;2023-11-19T04:41:24;13.20;99.90
12761;DHT22;6444;49.742;6.114;2023-11-19T04:43:51;13.20;99.90
12761;DHT22;6444;49.742;6.114;2023-11-19T04:46:18;13.90;99.90
12761;DHT22;6444;49.742;6.114;2023-11-19T04:48:45;13.80;99.90
12761;DHT22;6444;49.742;6.114;2023-11-19T04:51:11;14.20;99.90
12761;DHT22;6444;49.742;6.114;2023-11-19T04:53:38;14.20;99.90
12761;DHT22;6444;49.742;6.114;2023-11-19T04:56:09;13.90;99.90
12761;DHT22;6444;49.742;6.114;2023-11-19T04:58:35;13.90;99.90
12761;DHT22;6444;49.742;6.114;2023-11-19T05:01:02;13.70;99.90
12761;DHT22;6444;49.742;6.114;2023-11-19T05:03:29;13.60;99.90
12761;DHT22;6444;49.742;6.114;2023-11-19T05:05:55;13.80;99.90
12761;DHT22;6444;49.742;6.114;2023-11-19T05:08:22;13.40;99.90
12761;DHT22;6444;49.742;6.114;2023-11-19T05:10:48;13.00;99.90
12761;DHT22;6444;49.742;6.114;2023-11-19T05:13:15;13.40;99.90
12761;DHT22;6444;49.742;6.114;2023-11-19T05:15:42;13.40;99.90
12761;DHT22;6444;49.742;6.114;2023-11-19T05:18:09;13.60;99.90
12761;DHT22;6444;49.742;6.114;2023-11-19T05:20:36;13.50;99.90
12761;DHT22;6444;49.742;6.114;2023-11-19T05:23:02;13.60;99.90
12761;DHT22;6444;49.742;6.114;2023-11-19T05:25:29;13.90;99.90
12761;DHT22;6444;49.742;6.114;2023-11-19T05:27:58;14.20;99.90
12761;DHT22;6444;49.742;6.114;2023-11-19T05:30:25;13.70;99.90
12761;DHT22;6444;49.742;6.114;2023-11-19T05:32:52;13.30;99.90
12761;DHT22;6444;49.742;6.114;2023-11-19T05:35:18;13.40;99.90
12761;DHT22;6444;49.742;6.114;2023-11-19T05:37:45;13.70;99.90
12761;DHT22;6444;49.742;6.114;2023-11-19T05:40:11;13.50;99.90
12761;DHT22;6444;49.742;6.114;2023-11-19T05:42:38;13.50;99.90
12761;DHT22;6444;49.742;6.114;2023-11-19T05:45:05;13.40;99.90
12761;DHT22;6444;49.742;6.114;2023-11-19T05:47:31;13.30;99.90
12761;DHT22;6444;49.742;6.114;2023-11-19T05:49:58;13.30;99.90
12761;DHT22;6444;49.742;6.114;2023-11-19T05:52:25;13.20;99.90
12761;DHT22;6444;49.742;6.114;2023-11-19T05:54:51;13.20;99.90
12761;DHT22;6444;49.742;6.114;2023-11-19T05:57:18;13.10;99.90
12761;DHT22;6444;49.742;6.114;2023-11-19T05:59:48;13.70;99.90
12761;DHT22;6444;49.742;6.114;2023-11-19T06:02:15;13.60;99.90
12761;DHT22;6444;49.742;6.114;2023-11-19T06:04:41;13.90;99.90
12761;DHT22;6444;49.742;6.114;2023-11-19T06:07:08;14.20;99.90
12761;DHT22;6444;49.742;6.114;2023-11-19T06:09:35;14.30;99.90
12761;DHT22;6444;49.742;6.114;2023-11-19T06:12:02;13.90;99.90
12761;DHT22;6444;49.742;6.114;2023-11-19T06:14:29;13.90;99.90
12761;DHT22;6444;49.742;6.114;2023-11-19T06:16:55;13.90;99.90
12761;DHT22;6444;49.742;6.114;2023-11-19T06:19:22;14.20;99.90
12761;DHT22;6444;49.742;6.114;2023-11-19T06:21:48;14.40;99.90
12761;DHT22;6444;49.742;6.114;2023-11-19T06:24:16;14.20;99.90
12761;DHT22;6444;49.742;6.114;2023-11-19T06:26:42;14.20;99.90
12761;DHT22;6444;49.742;6.114;2023-11-19T06:29:09;14.50;99.90
12761;DHT22;6444;49.742;6.114;2023-11-19T06:31:36;14.60;99.90
12761;DHT22;6444;49.742;6.114;2023-11-19T06:34:02;14.20;99.90
12761;DHT22;6444;49.742;6.114;2023-11-19T06:36:30;13.70;99.90
12761;DHT22;6444;49.742;6.114;2023-11-19T06:38:56;13.60;99.90
12761;DHT22;6444;49.742;6.114;2023-11-19T06:41:23;13.80;99.90
12761;DHT22;6444;49.742;6.114;2023-11-19T06:43:50;14.00;99.90
12761;DHT22;6444;49.742;6.114;2023-11-19T06:46:17;14.10;99.90
12761;DHT22;6444;49.742;6.114;2023-11-19T06:48:43;13.80;99.90
12761;DHT22;6444;49.742;6.114;2023-11-19T06:51:11;14.00;99.90
12761;DHT22;6444;49.742;6.114;2023-11-19T06:53:37;14.00;99.90
12761;DHT22;6444;49.742;6.114;2023-11-19T06:56:04;14.20;99.90
12761;DHT22;6444;49.742;6.114;2023-11-19T06:58:30;13.90;99.90
12761;DHT22;6444;49.742;6.114;2023-11-19T07:00:57;13.70;99.90
12761;DHT22;6444;49.742;6.114;2023-11-19T07:03:26;13.60;99.90
12761;DHT22;6444;49.742;6.114;2023-11-19T07:05:53;13.50;99.90
12761;DHT22;6444;49.742;6.114;2023-11-19T07:08:20;13.50;99.90
12761;DHT22;6444;49.742;6.114;2023-11-19T07:10:46;13.60;99.90
12761;DHT22;6444;49.742;6.114;2023-11-19T07:13:13;13.60;99.90
12761;DHT22;6444;49.742;6.114;2023-11-19T07:15:39;13.60;99.90
12761;DHT22;6444;49.742;6.114;2023-11-19T07:18:06;13.70;99.90
12761;DHT22;6444;49.742;6.114;2023-11-19T07:20:33;14.30;99.90
12761;DHT22;6444;49.742;6.114;2023-11-19T07:23:00;14.20;99.90
12761;DHT22;6444;49.742;6.114;2023-11-19T07:25:27;14.30;99.90
12761;DHT22;6444;49.742;6.114;2023-11-19T07:27:53;14.50;99.90
12761;DHT22;6444;49.742;6.114;2023-11-19T07:30:20;14.20;99.90
12761;DHT22;6444;49.742;6.114;2023-11-19T07:32:47;13.90;99.90
12761;DHT22;6444;49.742;6.114;2023-11-19T07:35:14;13.90;99.90
12761;DHT22;6444;49.742;6.114;2023-11-19T07:37:41;14.50;99.90
12761;DHT22;6444;49.742;6.114;2023-11-19T07:40:07;14.40;99.90
12761;DHT22;6444;49.742;6.114;2023-11-19T07:42:34;14.60;99.90
12761;DHT22;6444;49.742;6.114;2023-11-19T07:45:01;14.70;99.90
12761;DHT22;6444;49.742;6.114;2023-11-19T07:47:27;14.80;99.90
12761;DHT22;6444;49.742;6.114;2023-11-19T07:49:54;14.50;99.90
12761;DHT22;6444;49.742;6.114;2023-11-19T07:52:21;14.30;99.90
12761;DHT22;6444;49.742;6.114;2023-11-19T07:54:47;14.30;99.90
12761;DHT22;6444;49.742;6.114;2023-11-19T07:59:34;14.10;99.90
12761;DHT22;6444;49.742;6.114;2023-11-19T08:02:01;14.80;99.90
12761;DHT22;6444;49.742;6.114;2023-11-19T08:04:28;14.80;99.90
12761;DHT22;6444;49.742;6.114;2023-11-19T08:06:54;14.40;99.90
12761;DHT22;6444;49.742;6.114;2023-11-19T08:09:21;14.00;99.90
12761;DHT22;6444;49.742;6.114;2023-11-19T08:11:48;13.90;99.90
12761;DHT22;6444;49.742;6.114;2023-11-19T08:14:14;13.80;99.90
12761;DHT22;6444;49.742;6.114;2023-11-19T08:16:42;13.40;99.90
12761;DHT22;6444;49.742;6.114;2023-11-19T08:19:08;13.40;99.90
12761;DHT22;6444;49.742;6.114;2023-11-19T08:21:35;13.60;99.90
12761;DHT22;6444;49.742;6.114;2023-11-19T08:24:02;13.60;99.90
12761;DHT22;6444;49.742;6.114;2023-11-19T08:26:30;13.80;99.90
12761;DHT22;6444;49.742;6.114;2023-11-19T08:28:56;13.80;99.90
12761;DHT22;6444;49.742;6.114;2023-11-19T08:31:24;14.00;99.90
12761;DHT22;6444;49.742;6.114;2023-11-19T08:33:50;14.20;99.90
12761;DHT22;6444;49.742;6.114;2023-11-19T08:36:17;13.80;99.90
12761;DHT22;6444;49.742;6.114;2023-11-19T08:38:44;13.70;99.90
12761;DHT22;6444;49.742;6.114;2023-11-19T08:41:10;14.60;99.90
12761;DHT22;6444;49.742;6.114;2023-11-19T08:43:37;15.20;99.90
12761;DHT22;6444;49.742;6.114;2023-11-19T08:46:09;15.00;99.90
12761;DHT22;6444;49.742;6.114;2023-11-19T08:48:31;14.90;99.90
12761;DHT22;6444;49.742;6.114;2023-11-19T08:50:58;15.30;99.90
12761;DHT22;6444;49.742;6.114;2023-11-19T08:53:24;15.10;99.90
12761;DHT22;6444;49.742;6.114;2023-11-19T08:55:51;14.40;99.90
12761;DHT22;6444;49.742;6.114;2023-11-19T08:58:17;14.10;99.90
12761;DHT22;6444;49.742;6.114;2023-11-19T09:00:44;13.80;99.90
12761;DHT22;6444;49.742;6.114;2023-11-19T09:03:11;14.20;99.90
12761;DHT22;6444;49.742;6.114;2023-11-19T09:05:37;14.40;99.90
12761;DHT22;6444;49.742;6.114;2023-11-19T09:08:04;14.40;99.90
12761;DHT22;6444;49.742;6.114;2023-11-19T09:10:31;14.70;99.90
12761;DHT22;6444;49.742;6.114;2023-11-19T09:12:58;16.00;99.90
12761;DHT22;6444;49.742;6.114;2023-11-19T09:15:25;15.90;99.90
12761;DHT22;6444;49.742;6.114;2023-11-19T09:17:51;16.90;99.90
12761;DHT22;6444;49.742;6.114;2023-11-19T09:20:21;17.10;99.90
12761;DHT22;6444;49.742;6.114;2023-11-19T09:22:47;16.80;99.90
12761;DHT22;6444;49.742;6.114;2023-11-19T09:25:14;16.50;99.90
12761;DHT22;6444;49.742;6.114;2023-11-19T09:27:40;16.20;99.90
12761;DHT22;6444;49.742;6.114;2023-11-19T09:30:07;15.90;99.90
12761;DHT22;6444;49.742;6.114;2023-11-19T09:32:34;16.40;99.90
12761;DHT22;6444;49.742;6.114;2023-11-19T09:35:01;17.00;99.90
12761;DHT22;6444;49.742;6.114;2023-11-19T09:37:28;17.30;99.90
12761;DHT22;6444;49.742;6.114;2023-11-19T09:39:54;17.30;99.90
12761;DHT22;6444;49.742;6.114;2023-11-19T09:42:20;17.40;99.90
12761;DHT22;6444;49.742;6.114;2023-11-19T09:44:48;17.10;99.90
12761;DHT22;6444;49.742;6.114;2023-11-19T09:47:15;17.10;99.90
12761;DHT22;6444;49.742;6.114;2023-11-19T09:49:41;17.20;99.90
12761;DHT22;6444;49.742;6.114;2023-11-19T09:52:08;17.00;99.90
12761;DHT22;6444;49.742;6.114;2023-11-19T09:54:35;16.50;99.90
12761;DHT22;6444;49.742;6.114;2023-11-19T09:57:01;16.00;99.90
12761;DHT22;6444;49.742;6.114;2023-11-19T09:59:28;15.90;99.90
12761;DHT22;6444;49.742;6.114;2023-11-19T10:01:55;15.90;99.90
12761;DHT22;6444;49.742;6.114;2023-11-19T10:04:22;15.70;99.90
12761;DHT22;6444;49.742;6.114;2023-11-19T10:06:49;15.60;99.90
12761;DHT22;6444;49.742;6.114;2023-11-19T10:09:15;15.30;99.90
12761;DHT22;6444;49.742;6.114;2023-11-19T10:11:42;15.00;99.90
12761;DHT22;6444;49.742;6.114;2023-11-19T10:14:09;15.70;99.90
12761;DHT22;6444;49.742;6.114;2023-11-19T10:16:36;15.70;99.90
12761;DHT22;6444;49.742;6.114;2023-11-19T10:19:02;15.20;99.90
12761;DHT22;6444;49.742;6.114;2023-11-19T10:21:32;15.00;99.90
12761;DHT22;6444;49.742;6.114;2023-11-19T10:23:56;14.70;99.90
12761;DHT22;6444;49.742;6.114;2023-11-19T10:26:26;15.20;99.90
12761;DHT22;6444;49.742;6.114;2023-11-19T10:28:53;15.20;99.90
12761;DHT22;6444;49.742;6.114;2023-11-19T10:31:19;14.70;99.90
12761;DHT22;6444;49.742;6.114;2023-11-19T10:33:46;14.60;99.90
12761;DHT22;6444;49.742;6.114;2023-11-19T10:36:13;14.90;99.90
12761;DHT22;6444;49.742;6.114;2023-11-19T10:38:40;15.20;99.90
12761;DHT22;6444;49.742;6.114;2023-11-19T10:41:07;15.10;99.90
12761;DHT22;6444;49.742;6.114;2023-11-19T10:43:43;15.90;99.90
12761;DHT22;6444;49.742;6.114;2023-11-19T10:46:12;16.50;99.90
12761;DHT22;6444;49.742;6.114;2023-11-19T10:48:38;16.10;99.90
12761;DHT22;6444;49.742;6.114;2023-11-19T10:51:05;16.50;99.90
12761;DHT22;6444;49.742;6.114;2023-11-19T10:53:31;16.60;99.90
12761;DHT22;6444;49.742;6.114;2023-11-19T10:55:58;17.20;99.90
12761;DHT22;6444;49.742;6.114;2023-11-19T10:58:25;16.80;99.90
12761;DHT22;6444;49.742;6.114;2023-11-19T11:00:52;17.00;99.90
12761;DHT22;6444;49.742;6.114;2023-11-19T11:03:19;16.70;99.90
12761;DHT22;6444;49.742;6.114;2023-11-19T11:05:49;16.50;99.90
12761;DHT22;6444;49.742;6.114;2023-11-19T11:08:16;16.30;99.90
12761;DHT22;6444;49.742;6.114;2023-11-19T11:10:51;16.20;99.90
12761;DHT22;6444;49.742;6.114;2023-11-19T11:13:13;15.90;99.90
12761;DHT22;6444;49.742;6.114;2023-11-19T11:15:39;15.90;99.90
12761;DHT22;6444;49.742;6.114;2023-11-19T11:18:06;15.60;99.90
12761;DHT22;6444;49.742;6.114;2023-11-19T11:20:32;15.70;99.90
12761;DHT22;6444;49.742;6.114;2023-11-19T11:23:40;15.90;99.90
12761;DHT22;6444;49.742;6.114;2023-11-19T11:29:20;15.90;99.90
12761;DHT22;6444;49.742;6.114;2023-11-19T11:31:52;15.70;99.90
12761;DHT22;6444;49.742;6.114;2023-11-19T11:34:54;15.80;99.90
12761;DHT22;6444;49.742;6.114;2023-11-19T11:37:19;15.70;99.90
12761;DHT22;6444;49.742;6.114;2023-11-19T11:39:48;15.80;99.90
12761;DHT22;6444;49.742;6.114;2023-11-19T11:45:09;15.80;99.90
12761;DHT22;6444;49.742;6.114;2023-11-19T11:50:13;16.40;99.90
12761;DHT22;6444;49.742;6.114;2023-11-19T11:55:36;16.90;99.90
12761;DHT22;6444;49.742;6.114;2023-11-19T11:58:03;16.80;99.90
12761;DHT22;6444;49.742;6.114;2023-11-19T12:00:29;16.90;99.90
12761;DHT22;6444;49.742;6.114;2023-11-19T12:02:56;17.50;99.90
12761;DHT22;6444;49.742;6.114;2023-11-19T12:05:23;17.00;99.90
12761;DHT22;6444;49.742;6.114;2023-11-19T12:07:55;17.00;99.90
12761;DHT22;6444;49.742;6.114;2023-11-19T12:10:22;17.30;99.90
12761;DHT22;6444;49.742;6.114;2023-11-19T12:12:48;17.30;99.90
12761;DHT22;6444;49.742;6.114;2023-11-19T12:15:15;16.90;99.90
12761;DHT22;6444;49.742;6.114;2023-11-19T12:17:46;17.10;99.90
12761;DHT22;6444;49.742;6.114;2023-11-19T12:20:09;17.00;99.90
12761;DHT22;6444;49.742;6.114;2023-11-19T12:22:37;16.20;99.90
12761;DHT22;6444;49.742;6.114;2023-11-19T12:25:02;16.10;99.90
12761;DHT22;6444;49.742;6.114;2023-11-19T12:27:29;16.20;99.90
12761;DHT22;6444;49.742;6.114;2023-11-19T12:29:56;15.90;99.90
12761;DHT22;6444;49.742;6.114;2023-11-19T12:32:23;15.90;99.90
12761;DHT22;6444;49.742;6.114;2023-11-19T12:34:50;16.00;99.90
12761;DHT22;6444;49.742;6.114;2023-11-19T12:37:16;16.00;99.90
12761;DHT22;6444;49.742;6.114;2023-11-19T12:39:43;15.80;99.90
12761;DHT22;6444;49.742;6.114;2023-11-19T12:42:09;15.70;99.90
12761;DHT22;6444;49.742;6.114;2023-11-19T12:44:36;15.60;99.90
12761;DHT22;6444;49.742;6.114;2023-11-19T12:47:09;15.40;99.90
12761;DHT22;6444;49.742;6.114;2023-11-19T12:49:35;15.50;99.90
12761;DHT22;6444;49.742;6.114;2023-11-19T12:52:02;15.70;99.90
12761;DHT22;6444;49.742;6.114;2023-11-19T12:54:32;15.50;99.90
12761;DHT22;6444;49.742;6.114;2023-11-19T12:56:58;15.30;99.90
12761;DHT22;6444;49.742;6.114;2023-11-19T12:59:25;15.20;99.90
12761;DHT22;6444;49.742;6.114;2023-11-19T13:01:55;15.30;99.90
12761;DHT22;6444;49.742;6.114;2023-11-19T13:04:21;15.20;99.90
12761;DHT22;6444;49.742;6.114;2023-11-19T13:06:48;15.40;99.90
12761;DHT22;6444;49.742;6.114;2023-11-19T13:09:26;15.70;99.90
12761;DHT22;6444;49.742;6.114;2023-11-19T13:11:53;15.00;99.90
12761;DHT22;6444;49.742;6.114;2023-11-19T13:14:20;14.80;99.90
12761;DHT22;6444;49.742;6.114;2023-11-19T13:16:46;15.00;99.90
12761;DHT22;6444;49.742;6.114;2023-11-19T13:19:14;14.90;99.90
12761;DHT22;6444;49.742;6.114;2023-11-19T13:21:40;14.90;99.90
12761;DHT22;6444;49.742;6.114;2023-11-19T13:24:07;14.80;99.90
12761;DHT22;6444;49.742;6.114;2023-11-19T13:26:34;14.40;99.90
12761;DHT22;6444;49.742;6.114;2023-11-19T13:29:01;14.50;99.90
12761;DHT22;6444;49.742;6.114;2023-11-19T13:31:27;14.40;99.90
12761;DHT22;6444;49.742;6.114;2023-11-19T13:33:54;14.50;99.90
12761;DHT22;6444;49.742;6.114;2023-11-19T13:36:21;15.10;99.90
12761;DHT22;6444;49.742;6.114;2023-11-19T13:38:47;15.00;99.90
12761;DHT22;6444;49.742;6.114;2023-11-19T13:41:14;15.00;99.90
12761;DHT22;6444;49.742;6.114;2023-11-19T13:43:41;14.90;99.90
12761;DHT22;6444;49.742;6.114;2023-11-19T13:46:07;14.40;99.90
12761;DHT22;6444;49.742;6.114;2023-11-19T13:48:34;14.30;99.90
12761;DHT22;6444;49.742;6.114;2023-11-19T13:51:01;14.60;99.90
12761;DHT22;6444;49.742;6.114;2023-11-19T13:53:30;14.50;99.90
12761;DHT22;6444;49.742;6.114;2023-11-19T13:56:00;14.70;99.90
12761;DHT22;6444;49.742;6.114;2023-11-19T13:58:23;15.00;99.90
12761;DHT22;6444;49.742;6.114;2023-11-19T14:00:50;14.70;99.90
12761;DHT22;6444;49.742;6.114;2023-11-19T14:03:17;14.50;99.90
12761;DHT22;6444;49.742;6.114;2023-11-19T14:05:44;14.50;99.90
12761;DHT22;6444;49.742;6.114;2023-11-19T14:08:11;14.50;99.90
12761;DHT22;6444;49.742;6.114;2023-11-19T14:10:40;14.50;99.90
12761;DHT22;6444;49.742;6.114;2023-11-19T14:13:07;14.70;99.90
12761;DHT22;6444;49.742;6.114;2023-11-19T14:15:33;14.80;99.90
12761;DHT22;6444;49.742;6.114;2023-11-19T14:18:00;14.20;99.90
12761;DHT22;6444;49.742;6.114;2023-11-19T14:20:27;14.10;99.90
12761;DHT22;6444;49.742;6.114;2023-11-19T14:22:54;14.00;99.90
12761;DHT22;6444;49.742;6.114;2023-11-19T14:25:20;14.00;99.90
12761;DHT22;6444;49.742;6.114;2023-11-19T14:27:47;14.10;99.90
12761;DHT22;6444;49.742;6.114;2023-11-19T14:30:14;14.10;99.90
12761;DHT22;6444;49.742;6.114;2023-11-19T14:32:41;14.00;99.90
12761;DHT22;6444;49.742;6.114;2023-11-19T14:35:08;14.30;99.90
12761;DHT22;6444;49.742;6.114;2023-11-19T14:37:34;14.20;99.90
12761;DHT22;6444;49.742;6.114;2023-11-19T14:40:01;14.60;99.90
12761;DHT22;6444;49.742;6.114;2023-11-19T14:42:28;14.60;99.90
12761;DHT22;6444;49.742;6.114;2023-11-19T14:44:54;14.60;99.90
12761;DHT22;6444;49.742;6.114;2023-11-19T14:47:21;14.50;99.90
12761;DHT22;6444;49.742;6.114;2023-11-19T14:49:48;14.10;99.90
12761;DHT22;6444;49.742;6.114;2023-11-19T14:52:15;14.00;99.90
12761;DHT22;6444;49.742;6.114;2023-11-19T14:54:42;14.20;99.90
12761;DHT22;6444;49.742;6.114;2023-11-19T14:57:09;14.40;99.90
12761;DHT22;6444;49.742;6.114;2023-11-19T14:59:36;14.30;99.90
12761;DHT22;6444;49.742;6.114;2023-11-19T15:02:03;14.20;99.90
12761;DHT22;6444;49.742;6.114;2023-11-19T15:04:29;14.10;99.90
12761;DHT22;6444;49.742;6.114;2023-11-19T15:06:59;13.90;99.90
12761;DHT22;6444;49.742;6.114;2023-11-19T15:09:26;13.60;99.90
12761;DHT22;6444;49.742;6.114;2023-11-19T15:11:56;13.60;99.90
12761;DHT22;6444;49.742;6.114;2023-11-19T15:14:22;13.90;99.90
12761;DHT22;6444;49.742;6.114;2023-11-19T15:16:50;14.40;99.90
12761;DHT22;6444;49.742;6.114;2023-11-19T15:19:16;14.30;99.90
12761;DHT22;6444;49.742;6.114;2023-11-19T15:21:43;14.20;99.90
12761;DHT22;6444;49.742;6.114;2023-11-19T15:24:10;14.10;99.90
12761;DHT22;6444;49.742;6.114;2023-11-19T15:26:37;14.00;99.90
12761;DHT22;6444;49.742;6.114;2023-11-19T15:29:03;13.60;99.90
12761;DHT22;6444;49.742;6.114;2023-11-19T15:31:30;13.70;99.90
12761;DHT22;6444;49.742;6.114;2023-11-19T15:33:57;13.60;99.90
12761;DHT22;6444;49.742;6.114;2023-11-19T15:36:24;14.00;99.90
12761;DHT22;6444;49.742;6.114;2023-11-19T15:38:50;13.70;99.90
12761;DHT22;6444;49.742;6.114;2023-11-19T15:41:17;13.40;99.90
12761;DHT22;6444;49.742;6.114;2023-11-19T15:43:43;13.20;99.90
12761;DHT22;6444;49.742;6.114;2023-11-19T15:46:10;13.10;99.90
12761;DHT22;6444;49.742;6.114;2023-11-19T15:48:39;13.30;99.90
12761;DHT22;6444;49.742;6.114;2023-11-19T15:51:06;13.60;99.90
12761;DHT22;6444;49.742;6.114;2023-11-19T15:53:33;13.30;99.90
12761;DHT22;6444;49.742;6.114;2023-11-19T15:56:00;13.00;99.90
12761;DHT22;6444;49.742;6.114;2023-11-19T15:58:27;13.00;99.90